sensor_id;sensor_type;location;lat;lon;timestamp;P1;durP1;ratioP1;P2;durP2;ratioP2
47335;SDS011;33068;51.990;5.926;2023-12-29T00:00:45;12.02;;;1.67;;
47335;SDS011;33068;51.990;5.926;2023-12-29T00:03:14;8.05;;;1.35;;
47335;SDS011;33068;51.990;5.926;2023-12-29T00:05:41;7.95;;;1.02;;
47335;SDS011;33068;51.990;5.926;2023-12-29T00:08:10;12.75;;;1.50;;
47335;SDS011;33068;51.990;5.926;2023-12-29T00:10:38;10.02;;;1.23;;
47335;SDS011;33068;51.990;5.926;2023-12-29T00:13:05;10.27;;;1.15;;
47335;SDS011;33068;51.990;5.926;2023-12-29T00:15:32;10.85;;;1.00;;
47335;SDS011;33068;51.990;5.926;2023-12-29T00:18:00;6.82;;;0.85;;
47335;SDS011;33068;51.990;5.926;2023-12-29T00:20:29;8.68;;;0.70;;
47335;SDS011;33068;51.990;5.926;2023-12-29T00:22:57;6.80;;;0.90;;
47335;SDS011;33068;51.990;5.926;2023-12-29T00:25:29;14.45;;;1.67;;
47335;SDS011;33068;51.990;5.926;2023-12-29T00:27:56;8.20;;;0.85;;
47335;SDS011;33068;51.990;5.926;2023-12-29T00:30:31;11.10;;;1.13;;
47335;SDS011;33068;51.990;5.926;2023-12-29T00:32:59;7.43;;;1.00;;
47335;SDS011;33068;51.990;5.926;2023-12-29T00:35:29;9.88;;;1.30;;
47335;SDS011;33068;51.990;5.926;2023-12-29T00:37:57;11.40;;;0.90;;
47335;SDS011;33068;51.990;5.926;2023-12-29T00:40:26;13.45;;;0.90;;
47335;SDS011;33068;51.990;5.926;2023-12-29T00:42:54;10.50;;;0.95;;
47335;SDS011;33068;51.990;5.926;2023-12-29T00:45:22;9.60;;;0.80;;
47335;SDS011;33068;51.990;5.926;2023-12-29T00:47:50;11.85;;;1.42;;
47335;SDS011;33068;51.990;5.926;2023-12-29T00:50:24;9.77;;;1.55;;
47335;SDS011;33068;51.990;5.926;2023-12-29T00:53:00;11.60;;;1.08;;
47335;SDS011;33068;51.990;5.926;2023-12-29T00:55:28;8.60;;;1.00;;
47335;SDS011;33068;51.990;5.926;2023-12-29T00:57:56;9.70;;;1.13;;
47335;SDS011;33068;51.990;5.926;2023-12-29T01:00:27;9.40;;;0.68;;
47335;SDS011;33068;51.990;5.926;2023-12-29T01:02:55;9.32;;;1.00;;
47335;SDS011;33068;51.990;5.926;2023-12-29T01:05:23;10.30;;;2.05;;
47335;SDS011;33068;51.990;5.926;2023-12-29T01:07:53;10.02;;;1.55;;
47335;SDS011;33068;51.990;5.926;2023-12-29T01:10:24;6.72;;;0.80;;
47335;SDS011;33068;51.990;5.926;2023-12-29T01:12:51;9.00;;;1.13;;
47335;SDS011;33068;51.990;5.926;2023-12-29T01:15:19;11.38;;;1.00;;
47335;SDS011;33068;51.990;5.926;2023-12-29T01:17:50;4.82;;;0.93;;
47335;SDS011;33068;51.990;5.926;2023-12-29T01:20:19;7.85;;;1.60;;
47335;SDS011;33068;51.990;5.926;2023-12-29T01:22:49;12.00;;;1.95;;
47335;SDS011;33068;51.990;5.926;2023-12-29T01:25:18;5.07;;;0.60;;
47335;SDS011;33068;51.990;5.926;2023-12-29T01:27:47;8.30;;;1.25;;
47335;SDS011;33068;51.990;5.926;2023-12-29T01:30:18;7.22;;;1.15;;
47335;SDS011;33068;51.990;5.926;2023-12-29T01:32:45;9.82;;;1.65;;
47335;SDS011;33068;51.990;5.926;2023-12-29T01:35:13;8.57;;;0.75;;
47335;SDS011;33068;51.990;5.926;2023-12-29T01:37:41;12.27;;;1.33;;
47335;SDS011;33068;51.990;5.926;2023-12-29T01:40:11;17.10;;;1.75;;
47335;SDS011;33068;51.990;5.926;2023-12-29T01:42:42;11.57;;;0.98;;
47335;SDS011;33068;51.990;5.926;2023-12-29T01:45:14;10.73;;;1.20;;
47335;SDS011;33068;51.990;5.926;2023-12-29T01:47:47;8.18;;;0.80;;
47335;SDS011;33068;51.990;5.926;2023-12-29T01:50:16;9.52;;;1.00;;
47335;SDS011;33068;51.990;5.926;2023-12-29T01:52:44;5.70;;;0.90;;
47335;SDS011;33068;51.990;5.926;2023-12-29T01:55:12;10.23;;;1.77;;
47335;SDS011;33068;51.990;5.926;2023-12-29T01:57:42;12.25;;;1.10;;
47335;SDS011;33068;51.990;5.926;2023-12-29T02:00:12;10.40;;;0.60;;
47335;SDS011;33068;51.990;5.926;2023-12-29T02:02:43;7.10;;;1.23;;
47335;SDS011;33068;51.990;5.926;2023-12-29T02:05:11;7.88;;;0.80;;
47335;SDS011;33068;51.990;5.926;2023-12-29T02:07:41;12.25;;;1.10;;
47335;SDS011;33068;51.990;5.926;2023-12-29T02:10:10;8.90;;;0.80;;
47335;SDS011;33068;51.990;5.926;2023-12-29T02:12:41;9.73;;;1.00;;
47335;SDS011;33068;51.990;5.926;2023-12-29T02:15:09;5.38;;;0.80;;
47335;SDS011;33068;51.990;5.926;2023-12-29T02:17:40;10.80;;;0.80;;
47335;SDS011;33068;51.990;5.926;2023-12-29T02:20:15;6.18;;;0.77;;
47335;SDS011;33068;51.990;5.926;2023-12-29T02:22:47;9.25;;;1.45;;
47335;SDS011;33068;51.990;5.926;2023-12-29T02:25:18;9.98;;;1.27;;
47335;SDS011;33068;51.990;5.926;2023-12-29T02:27:49;12.35;;;1.13;;
47335;SDS011;33068;51.990;5.926;2023-12-29T02:30:21;8.30;;;1.05;;
47335;SDS011;33068;51.990;5.926;2023-12-29T02:32:52;7.68;;;1.00;;
47335;SDS011;33068;51.990;5.926;2023-12-29T02:35:23;5.90;;;1.00;;
47335;SDS011;33068;51.990;5.926;2023-12-29T02:37:52;8.50;;;1.13;;
47335;SDS011;33068;51.990;5.926;2023-12-29T02:40:25;5.25;;;0.88;;
47335;SDS011;33068;51.990;5.926;2023-12-29T02:42:52;7.00;;;1.13;;
47335;SDS011;33068;51.990;5.926;2023-12-29T02:45:21;6.82;;;0.77;;
47335;SDS011;33068;51.990;5.926;2023-12-29T02:47:58;11.45;;;0.90;;
47335;SDS011;33068;51.990;5.926;2023-12-29T02:51:03;7.60;;;1.50;;
47335;SDS011;33068;51.990;5.926;2023-12-29T02:53:31;9.93;;;1.23;;
47335;SDS011;33068;51.990;5.926;2023-12-29T02:56:00;10.40;;;0.80;;
47335;SDS011;33068;51.990;5.926;2023-12-29T02:58:27;10.35;;;1.08;;
47335;SDS011;33068;51.990;5.926;2023-12-29T03:00:59;9.63;;;1.70;;
47335;SDS011;33068;51.990;5.926;2023-12-29T03:03:27;11.88;;;1.10;;
47335;SDS011;33068;51.990;5.926;2023-12-29T03:05:55;13.80;;;1.35;;
47335;SDS011;33068;51.990;5.926;2023-12-29T03:08:22;9.45;;;1.15;;
47335;SDS011;33068;51.990;5.926;2023-12-29T03:10:50;7.30;;;0.90;;
47335;SDS011;33068;51.990;5.926;2023-12-29T03:13:19;9.57;;;1.25;;
47335;SDS011;33068;51.990;5.926;2023-12-29T03:15:48;12.38;;;1.17;;
47335;SDS011;33068;51.990;5.926;2023-12-29T03:18:16;9.07;;;1.10;;
47335;SDS011;33068;51.990;5.926;2023-12-29T03:20:44;9.95;;;1.17;;
47335;SDS011;33068;51.990;5.926;2023-12-29T03:23:11;9.25;;;1.08;;
47335;SDS011;33068;51.990;5.926;2023-12-29T03:25:41;12.50;;;2.25;;
47335;SDS011;33068;51.990;5.926;2023-12-29T03:28:10;12.43;;;1.10;;
47335;SDS011;33068;51.990;5.926;2023-12-29T03:30:42;12.98;;;1.00;;
47335;SDS011;33068;51.990;5.926;2023-12-29T03:33:10;13.60;;;1.20;;
47335;SDS011;33068;51.990;5.926;2023-12-29T03:35:38;12.07;;;1.13;;
47335;SDS011;33068;51.990;5.926;2023-12-29T03:38:06;8.93;;;1.15;;
47335;SDS011;33068;51.990;5.926;2023-12-29T03:40:36;7.70;;;1.23;;
47335;SDS011;33068;51.990;5.926;2023-12-29T03:43:03;14.30;;;1.30;;
47335;SDS011;33068;51.990;5.926;2023-12-29T03:45:31;11.38;;;1.10;;
47335;SDS011;33068;51.990;5.926;2023-12-29T03:48:00;11.00;;;1.25;;
47335;SDS011;33068;51.990;5.926;2023-12-29T03:50:29;11.02;;;1.00;;
47335;SDS011;33068;51.990;5.926;2023-12-29T03:52:56;11.27;;;1.80;;
47335;SDS011;33068;51.990;5.926;2023-12-29T03:55:25;8.68;;;1.20;;
47335;SDS011;33068;51.990;5.926;2023-12-29T03:57:55;12.27;;;1.25;;
47335;SDS011;33068;51.990;5.926;2023-12-29T04:00:22;11.05;;;1.48;;
47335;SDS011;33068;51.990;5.926;2023-12-29T04:02:50;15.25;;;1.13;;
47335;SDS011;33068;51.990;5.926;2023-12-29T04:05:19;9.20;;;1.73;;
47335;SDS011;33068;51.990;5.926;2023-12-29T04:07:46;11.50;;;1.75;;
47335;SDS011;33068;51.990;5.926;2023-12-29T04:10:15;14.88;;;2.00;;
47335;SDS011;33068;51.990;5.926;2023-12-29T04:12:44;14.73;;;2.00;;
47335;SDS011;33068;51.990;5.926;2023-12-29T04:15:12;16.20;;;1.63;;
47335;SDS011;33068;51.990;5.926;2023-12-29T04:17:42;13.45;;;1.95;;
47335;SDS011;33068;51.990;5.926;2023-12-29T04:20:10;16.92;;;1.63;;
47335;SDS011;33068;51.990;5.926;2023-12-29T04:22:40;19.33;;;2.15;;
47335;SDS011;33068;51.990;5.926;2023-12-29T04:25:08;16.10;;;1.50;;
47335;SDS011;33068;51.990;5.926;2023-12-29T04:27:37;11.57;;;1.35;;
47335;SDS011;33068;51.990;5.926;2023-12-29T04:30:06;17.77;;;2.33;;
47335;SDS011;33068;51.990;5.926;2023-12-29T04:32:35;12.98;;;1.42;;
47335;SDS011;33068;51.990;5.926;2023-12-29T04:35:03;15.25;;;1.67;;
47335;SDS011;33068;51.990;5.926;2023-12-29T04:37:35;12.88;;;1.85;;
47335;SDS011;33068;51.990;5.926;2023-12-29T04:40:06;17.10;;;1.38;;
47335;SDS011;33068;51.990;5.926;2023-12-29T04:42:35;11.77;;;1.58;;
47335;SDS011;33068;51.990;5.926;2023-12-29T04:45:03;14.18;;;1.45;;
47335;SDS011;33068;51.990;5.926;2023-12-29T04:47:33;11.93;;;1.92;;
47335;SDS011;33068;51.990;5.926;2023-12-29T04:50:00;10.73;;;1.52;;
47335;SDS011;33068;51.990;5.926;2023-12-29T04:52:42;16.15;;;1.38;;
47335;SDS011;33068;51.990;5.926;2023-12-29T04:55:28;10.23;;;1.10;;
47335;SDS011;33068;51.990;5.926;2023-12-29T04:58:04;12.43;;;1.48;;
47335;SDS011;33068;51.990;5.926;2023-12-29T05:00:57;12.60;;;1.40;;
47335;SDS011;33068;51.990;5.926;2023-12-29T05:03:44;15.57;;;2.22;;
47335;SDS011;33068;51.990;5.926;2023-12-29T05:06:31;13.20;;;2.17;;
47335;SDS011;33068;51.990;5.926;2023-12-29T05:09:08;16.20;;;2.20;;
47335;SDS011;33068;51.990;5.926;2023-12-29T05:11:51;12.35;;;1.70;;
47335;SDS011;33068;51.990;5.926;2023-12-29T05:17:32;10.18;;;1.35;;
47335;SDS011;33068;51.990;5.926;2023-12-29T05:20:03;11.77;;;1.90;;
47335;SDS011;33068;51.990;5.926;2023-12-29T05:22:50;14.30;;;2.00;;
47335;SDS011;33068;51.990;5.926;2023-12-29T05:25:38;14.15;;;1.67;;
47335;SDS011;33068;51.990;5.926;2023-12-29T05:42:08;13.77;;;1.73;;
47335;SDS011;33068;51.990;5.926;2023-12-29T05:44:46;13.18;;;1.65;;
47335;SDS011;33068;51.990;5.926;2023-12-29T05:47:23;19.23;;;1.70;;
47335;SDS011;33068;51.990;5.926;2023-12-29T05:50:02;20.80;;;2.97;;
47335;SDS011;33068;51.990;5.926;2023-12-29T05:53:00;16.75;;;1.77;;
47335;SDS011;33068;51.990;5.926;2023-12-29T05:56:25;16.33;;;1.50;;
47335;SDS011;33068;51.990;5.926;2023-12-29T05:59:27;11.27;;;1.35;;
47335;SDS011;33068;51.990;5.926;2023-12-29T06:02:02;11.43;;;1.52;;
47335;SDS011;33068;51.990;5.926;2023-12-29T06:04:33;14.48;;;1.60;;
47335;SDS011;33068;51.990;5.926;2023-12-29T06:07:08;8.88;;;1.10;;
47335;SDS011;33068;51.990;5.926;2023-12-29T06:09:57;9.10;;;1.38;;
47335;SDS011;33068;51.990;5.926;2023-12-29T06:12:25;10.90;;;1.48;;
47335;SDS011;33068;51.990;5.926;2023-12-29T06:14:54;18.98;;;2.13;;
47335;SDS011;33068;51.990;5.926;2023-12-29T06:17:21;11.55;;;1.52;;
47335;SDS011;33068;51.990;5.926;2023-12-29T06:19:49;11.63;;;1.55;;
47335;SDS011;33068;51.990;5.926;2023-12-29T06:22:18;15.35;;;1.17;;
47335;SDS011;33068;51.990;5.926;2023-12-29T06:24:46;18.58;;;1.38;;
47335;SDS011;33068;51.990;5.926;2023-12-29T06:27:15;12.40;;;1.35;;
47335;SDS011;33068;51.990;5.926;2023-12-29T06:29:43;11.93;;;1.35;;
47335;SDS011;33068;51.990;5.926;2023-12-29T06:32:12;9.52;;;1.38;;
47335;SDS011;33068;51.990;5.926;2023-12-29T06:34:40;13.38;;;1.58;;
47335;SDS011;33068;51.990;5.926;2023-12-29T06:37:08;18.88;;;1.80;;
47335;SDS011;33068;51.990;5.926;2023-12-29T06:39:35;14.85;;;1.65;;
47335;SDS011;33068;51.990;5.926;2023-12-29T06:42:04;8.57;;;1.30;;
47335;SDS011;33068;51.990;5.926;2023-12-29T06:44:31;18.38;;;2.20;;
47335;SDS011;33068;51.990;5.926;2023-12-29T06:46:59;9.90;;;1.58;;
47335;SDS011;33068;51.990;5.926;2023-12-29T06:52:40;11.75;;;1.42;;
47335;SDS011;33068;51.990;5.926;2023-12-29T06:55:08;11.60;;;1.10;;
47335;SDS011;33068;51.990;5.926;2023-12-29T06:57:35;12.70;;;1.80;;
47335;SDS011;33068;51.990;5.926;2023-12-29T07:00:03;10.93;;;1.35;;
47335;SDS011;33068;51.990;5.926;2023-12-29T07:02:31;16.70;;;1.65;;
47335;SDS011;33068;51.990;5.926;2023-12-29T07:04:59;20.52;;;1.35;;
47335;SDS011;33068;51.990;5.926;2023-12-29T07:07:26;14.05;;;1.75;;
47335;SDS011;33068;51.990;5.926;2023-12-29T07:09:55;12.65;;;1.40;;
47335;SDS011;33068;51.990;5.926;2023-12-29T07:12:22;11.38;;;1.13;;
47335;SDS011;33068;51.990;5.926;2023-12-29T07:14:50;10.80;;;1.58;;
47335;SDS011;33068;51.990;5.926;2023-12-29T07:17:17;6.30;;;0.70;;
47335;SDS011;33068;51.990;5.926;2023-12-29T07:19:45;11.32;;;1.98;;
47335;SDS011;33068;51.990;5.926;2023-12-29T07:22:12;13.38;;;1.17;;
47335;SDS011;33068;51.990;5.926;2023-12-29T07:24:40;11.68;;;1.02;;
47335;SDS011;33068;51.990;5.926;2023-12-29T07:27:08;12.27;;;1.50;;
47335;SDS011;33068;51.990;5.926;2023-12-29T07:29:36;7.50;;;1.10;;
47335;SDS011;33068;51.990;5.926;2023-12-29T07:32:03;9.15;;;2.20;;
47335;SDS011;33068;51.990;5.926;2023-12-29T07:34:31;17.05;;;3.53;;
47335;SDS011;33068;51.990;5.926;2023-12-29T07:36:59;13.65;;;2.38;;
47335;SDS011;33068;51.990;5.926;2023-12-29T07:39:26;11.52;;;1.50;;
47335;SDS011;33068;51.990;5.926;2023-12-29T07:41:54;10.32;;;2.08;;
47335;SDS011;33068;51.990;5.926;2023-12-29T07:44:26;14.77;;;1.85;;
47335;SDS011;33068;51.990;5.926;2023-12-29T07:46:54;9.85;;;1.80;;
47335;SDS011;33068;51.990;5.926;2023-12-29T07:49:24;16.05;;;2.53;;
47335;SDS011;33068;51.990;5.926;2023-12-29T07:51:51;11.43;;;2.33;;
47335;SDS011;33068;51.990;5.926;2023-12-29T07:54:19;13.43;;;2.65;;
47335;SDS011;33068;51.990;5.926;2023-12-29T07:56:46;13.35;;;2.30;;
47335;SDS011;33068;51.990;5.926;2023-12-29T07:59:14;11.98;;;2.47;;
47335;SDS011;33068;51.990;5.926;2023-12-29T08:01:43;15.55;;;2.80;;
47335;SDS011;33068;51.990;5.926;2023-12-29T08:04:11;16.17;;;2.63;;
47335;SDS011;33068;51.990;5.926;2023-12-29T08:06:38;16.70;;;3.53;;
47335;SDS011;33068;51.990;5.926;2023-12-29T08:09:05;20.65;;;3.58;;
47335;SDS011;33068;51.990;5.926;2023-12-29T08:11:33;14.85;;;2.50;;
47335;SDS011;33068;51.990;5.926;2023-12-29T08:14:00;16.33;;;2.88;;
47335;SDS011;33068;51.990;5.926;2023-12-29T08:16:28;13.45;;;2.22;;
47335;SDS011;33068;51.990;5.926;2023-12-29T08:18:57;12.55;;;2.58;;
47335;SDS011;33068;51.990;5.926;2023-12-29T08:21:24;11.60;;;2.53;;
47335;SDS011;33068;51.990;5.926;2023-12-29T08:23:51;10.63;;;2.70;;
47335;SDS011;33068;51.990;5.926;2023-12-29T08:26:19;9.63;;;2.08;;
47335;SDS011;33068;51.990;5.926;2023-12-29T08:28:46;5.47;;;1.70;;
47335;SDS011;33068;51.990;5.926;2023-12-29T08:31:14;13.45;;;2.25;;
47335;SDS011;33068;51.990;5.926;2023-12-29T08:33:41;9.45;;;1.77;;
47335;SDS011;33068;51.990;5.926;2023-12-29T08:36:10;8.80;;;1.67;;
47335;SDS011;33068;51.990;5.926;2023-12-29T08:38:38;11.57;;;2.08;;
47335;SDS011;33068;51.990;5.926;2023-12-29T08:41:05;11.32;;;1.42;;
47335;SDS011;33068;51.990;5.926;2023-12-29T08:43:33;7.82;;;1.80;;
47335;SDS011;33068;51.990;5.926;2023-12-29T08:46:01;8.10;;;1.60;;
47335;SDS011;33068;51.990;5.926;2023-12-29T08:48:29;15.85;;;2.60;;
47335;SDS011;33068;51.990;5.926;2023-12-29T08:50:56;11.23;;;1.42;;
47335;SDS011;33068;51.990;5.926;2023-12-29T08:53:25;9.65;;;1.50;;
47335;SDS011;33068;51.990;5.926;2023-12-29T08:55:55;10.05;;;1.95;;
47335;SDS011;33068;51.990;5.926;2023-12-29T08:58:23;8.00;;;1.15;;
47335;SDS011;33068;51.990;5.926;2023-12-29T09:00:50;7.18;;;1.30;;
47335;SDS011;33068;51.990;5.926;2023-12-29T09:03:17;6.57;;;1.20;;
47335;SDS011;33068;51.990;5.926;2023-12-29T09:05:45;6.20;;;1.00;;
47335;SDS011;33068;51.990;5.926;2023-12-29T09:08:12;7.85;;;1.20;;
47335;SDS011;33068;51.990;5.926;2023-12-29T09:10:41;7.32;;;1.23;;
47335;SDS011;33068;51.990;5.926;2023-12-29T09:13:08;6.10;;;1.10;;
47335;SDS011;33068;51.990;5.926;2023-12-29T09:15:36;8.80;;;1.00;;
47335;SDS011;33068;51.990;5.926;2023-12-29T09:18:04;5.30;;;0.73;;
47335;SDS011;33068;51.990;5.926;2023-12-29T09:20:32;4.53;;;0.60;;
47335;SDS011;33068;51.990;5.926;2023-12-29T09:22:59;9.63;;;1.30;;
47335;SDS011;33068;51.990;5.926;2023-12-29T09:25:28;10.70;;;1.40;;
47335;SDS011;33068;51.990;5.926;2023-12-29T09:27:57;6.03;;;0.52;;
47335;SDS011;33068;51.990;5.926;2023-12-29T09:30:24;6.18;;;1.23;;
47335;SDS011;33068;51.990;5.926;2023-12-29T09:32:54;4.25;;;0.70;;
47335;SDS011;33068;51.990;5.926;2023-12-29T09:35:21;8.63;;;2.17;;
47335;SDS011;33068;51.990;5.926;2023-12-29T09:37:49;5.38;;;0.95;;
47335;SDS011;33068;51.990;5.926;2023-12-29T09:40:16;3.40;;;0.77;;
47335;SDS011;33068;51.990;5.926;2023-12-29T09:42:44;5.18;;;0.45;;
47335;SDS011;33068;51.990;5.926;2023-12-29T09:45:13;5.70;;;0.90;;
47335;SDS011;33068;51.990;5.926;2023-12-29T09:47:42;3.33;;;0.50;;
47335;SDS011;33068;51.990;5.926;2023-12-29T09:50:11;3.20;;;0.85;;
47335;SDS011;33068;51.990;5.926;2023-12-29T09:52:39;6.28;;;1.70;;
47335;SDS011;33068;51.990;5.926;2023-12-29T09:55:08;5.72;;;0.65;;
47335;SDS011;33068;51.990;5.926;2023-12-29T09:57:36;7.45;;;0.90;;
47335;SDS011;33068;51.990;5.926;2023-12-29T10:00:04;3.83;;;0.60;;
47335;SDS011;33068;51.990;5.926;2023-12-29T10:02:37;3.85;;;1.05;;
47335;SDS011;33068;51.990;5.926;2023-12-29T10:05:05;4.97;;;1.13;;
47335;SDS011;33068;51.990;5.926;2023-12-29T10:07:36;4.53;;;0.60;;
47335;SDS011;33068;51.990;5.926;2023-12-29T10:10:04;1.42;;;0.68;;
47335;SDS011;33068;51.990;5.926;2023-12-29T10:12:32;5.85;;;0.73;;
47335;SDS011;33068;51.990;5.926;2023-12-29T10:15:05;3.47;;;0.65;;
47335;SDS011;33068;51.990;5.926;2023-12-29T10:17:40;3.67;;;0.82;;
47335;SDS011;33068;51.990;5.926;2023-12-29T10:20:11;4.65;;;0.98;;
47335;SDS011;33068;51.990;5.926;2023-12-29T10:22:41;6.25;;;0.95;;
47335;SDS011;33068;51.990;5.926;2023-12-29T10:25:10;1.98;;;0.95;;
47335;SDS011;33068;51.990;5.926;2023-12-29T10:27:37;3.22;;;0.70;;
47335;SDS011;33068;51.990;5.926;2023-12-29T10:30:05;3.63;;;0.75;;
47335;SDS011;33068;51.990;5.926;2023-12-29T10:32:40;3.38;;;0.80;;
47335;SDS011;33068;51.990;5.926;2023-12-29T10:35:08;2.22;;;0.70;;
47335;SDS011;33068;51.990;5.926;2023-12-29T10:37:36;3.70;;;0.70;;
47335;SDS011;33068;51.990;5.926;2023-12-29T10:40:05;2.08;;;0.57;;
47335;SDS011;33068;51.990;5.926;2023-12-29T10:42:33;6.60;;;0.60;;
47335;SDS011;33068;51.990;5.926;2023-12-29T10:45:06;1.08;;;0.50;;
47335;SDS011;33068;51.990;5.926;2023-12-29T10:47:34;3.38;;;0.90;;
47335;SDS011;33068;51.990;5.926;2023-12-29T10:50:07;2.58;;;0.60;;
47335;SDS011;33068;51.990;5.926;2023-12-29T10:52:35;3.45;;;0.60;;
47335;SDS011;33068;51.990;5.926;2023-12-29T10:55:06;3.10;;;0.65;;
47335;SDS011;33068;51.990;5.926;2023-12-29T10:57:34;2.10;;;0.60;;
47335;SDS011;33068;51.990;5.926;2023-12-29T11:00:02;2.03;;;0.60;;
47335;SDS011;33068;51.990;5.926;2023-12-29T11:02:32;2.33;;;0.50;;
47335;SDS011;33068;51.990;5.926;2023-12-29T11:05:03;7.45;;;1.13;;
47335;SDS011;33068;51.990;5.926;2023-12-29T11:07:32;1.67;;;0.50;;
47335;SDS011;33068;51.990;5.926;2023-12-29T11:10:00;2.83;;;0.63;;
47335;SDS011;33068;51.990;5.926;2023-12-29T11:12:29;2.22;;;0.63;;
47335;SDS011;33068;51.990;5.926;2023-12-29T11:14:57;5.55;;;0.70;;
47335;SDS011;33068;51.990;5.926;2023-12-29T11:17:25;1.35;;;0.60;;
47335;SDS011;33068;51.990;5.926;2023-12-29T11:19:53;1.73;;;0.50;;
47335;SDS011;33068;51.990;5.926;2023-12-29T11:22:20;3.03;;;0.68;;
47335;SDS011;33068;51.990;5.926;2023-12-29T11:24:49;1.15;;;0.50;;
47335;SDS011;33068;51.990;5.926;2023-12-29T11:27:17;4.28;;;0.80;;
47335;SDS011;33068;51.990;5.926;2023-12-29T11:29:45;1.98;;;0.55;;
47335;SDS011;33068;51.990;5.926;2023-12-29T11:32:16;3.63;;;0.73;;
47335;SDS011;33068;51.990;5.926;2023-12-29T11:34:47;2.40;;;0.70;;
47335;SDS011;33068;51.990;5.926;2023-12-29T11:37:21;5.03;;;0.60;;
47335;SDS011;33068;51.990;5.926;2023-12-29T11:39:52;4.18;;;1.00;;
47335;SDS011;33068;51.990;5.926;2023-12-29T11:42:26;4.65;;;0.90;;
47335;SDS011;33068;51.990;5.926;2023-12-29T11:44:56;3.92;;;0.60;;
47335;SDS011;33068;51.990;5.926;2023-12-29T11:47:35;4.35;;;0.88;;
47335;SDS011;33068;51.990;5.926;2023-12-29T11:50:03;4.10;;;0.85;;
47335;SDS011;33068;51.990;5.926;2023-12-29T11:52:34;8.32;;;0.70;;
47335;SDS011;33068;51.990;5.926;2023-12-29T11:55:09;5.75;;;0.70;;
47335;SDS011;33068;51.990;5.926;2023-12-29T11:57:36;9.33;;;2.10;;
47335;SDS011;33068;51.990;5.926;2023-12-29T12:00:07;3.38;;;0.57;;
47335;SDS011;33068;51.990;5.926;2023-12-29T12:02:37;5.60;;;0.55;;
47335;SDS011;33068;51.990;5.926;2023-12-29T12:05:08;8.68;;;0.80;;
47335;SDS011;33068;51.990;5.926;2023-12-29T12:07:57;7.38;;;0.75;;
47335;SDS011;33068;51.990;5.926;2023-12-29T12:10:31;5.07;;;0.98;;
47335;SDS011;33068;51.990;5.926;2023-12-29T12:13:04;5.38;;;1.05;;
47335;SDS011;33068;51.990;5.926;2023-12-29T12:15:31;5.10;;;0.70;;
47335;SDS011;33068;51.990;5.926;2023-12-29T12:17:59;12.57;;;1.15;;
47335;SDS011;33068;51.990;5.926;2023-12-29T12:20:29;6.45;;;0.70;;
47335;SDS011;33068;51.990;5.926;2023-12-29T12:22:57;7.25;;;0.93;;
47335;SDS011;33068;51.990;5.926;2023-12-29T12:25:25;6.40;;;1.00;;
47335;SDS011;33068;51.990;5.926;2023-12-29T12:27:54;12.57;;;2.03;;
47335;SDS011;33068;51.990;5.926;2023-12-29T12:30:22;6.68;;;1.33;;
47335;SDS011;33068;51.990;5.926;2023-12-29T12:33:00;10.10;;;0.60;;
47335;SDS011;33068;51.990;5.926;2023-12-29T12:35:28;11.48;;;0.60;;
47335;SDS011;33068;51.990;5.926;2023-12-29T12:38:07;9.60;;;1.35;;
47335;SDS011;33068;51.990;5.926;2023-12-29T12:40:37;8.63;;;1.10;;
47335;SDS011;33068;51.990;5.926;2023-12-29T12:43:06;9.48;;;1.05;;
47335;SDS011;33068;51.990;5.926;2023-12-29T12:45:33;11.07;;;1.20;;
47335;SDS011;33068;51.990;5.926;2023-12-29T12:48:09;16.80;;;1.33;;
47335;SDS011;33068;51.990;5.926;2023-12-29T12:50:37;11.45;;;0.77;;
47335;SDS011;33068;51.990;5.926;2023-12-29T12:53:09;5.90;;;0.95;;
47335;SDS011;33068;51.990;5.926;2023-12-29T12:55:37;14.48;;;2.05;;
47335;SDS011;33068;51.990;5.926;2023-12-29T12:58:08;6.63;;;1.35;;
47335;SDS011;33068;51.990;5.926;2023-12-29T13:00:39;9.75;;;0.80;;
47335;SDS011;33068;51.990;5.926;2023-12-29T13:03:06;7.43;;;0.68;;
47335;SDS011;33068;51.990;5.926;2023-12-29T13:05:36;10.73;;;1.67;;
47335;SDS011;33068;51.990;5.926;2023-12-29T13:08:06;9.30;;;1.40;;
47335;SDS011;33068;51.990;5.926;2023-12-29T13:10:39;5.20;;;0.70;;
47335;SDS011;33068;51.990;5.926;2023-12-29T13:13:09;9.63;;;1.20;;
47335;SDS011;33068;51.990;5.926;2023-12-29T13:15:44;10.90;;;1.38;;
47335;SDS011;33068;51.990;5.926;2023-12-29T13:18:12;10.20;;;0.80;;
47335;SDS011;33068;51.990;5.926;2023-12-29T13:20:45;10.00;;;0.90;;
47335;SDS011;33068;51.990;5.926;2023-12-29T13:23:13;9.88;;;0.90;;
47335;SDS011;33068;51.990;5.926;2023-12-29T13:25:43;10.50;;;1.10;;
47335;SDS011;33068;51.990;5.926;2023-12-29T13:28:19;13.68;;;1.25;;
47335;SDS011;33068;51.990;5.926;2023-12-29T13:30:46;14.70;;;1.80;;
47335;SDS011;33068;51.990;5.926;2023-12-29T13:33:15;11.55;;;1.85;;
47335;SDS011;33068;51.990;5.926;2023-12-29T13:35:46;12.38;;;1.20;;
47335;SDS011;33068;51.990;5.926;2023-12-29T13:38:16;13.57;;;1.45;;
47335;SDS011;33068;51.990;5.926;2023-12-29T13:40:47;11.32;;;1.10;;
47335;SDS011;33068;51.990;5.926;2023-12-29T13:43:21;11.30;;;1.35;;
47335;SDS011;33068;51.990;5.926;2023-12-29T13:45:49;12.63;;;1.40;;
47335;SDS011;33068;51.990;5.926;2023-12-29T13:48:18;15.30;;;1.40;;
47335;SDS011;33068;51.990;5.926;2023-12-29T13:50:47;11.80;;;1.77;;
47335;SDS011;33068;51.990;5.926;2023-12-29T13:53:17;10.68;;;1.10;;
47335;SDS011;33068;51.990;5.926;2023-12-29T13:55:46;11.57;;;1.55;;
47335;SDS011;33068;51.990;5.926;2023-12-29T13:58:21;10.07;;;1.33;;
47335;SDS011;33068;51.990;5.926;2023-12-29T14:00:53;9.40;;;1.20;;
47335;SDS011;33068;51.990;5.926;2023-12-29T14:03:26;10.18;;;1.23;;
47335;SDS011;33068;51.990;5.926;2023-12-29T14:05:59;9.60;;;1.25;;
47335;SDS011;33068;51.990;5.926;2023-12-29T14:08:30;7.65;;;1.48;;
47335;SDS011;33068;51.990;5.926;2023-12-29T14:10:59;10.35;;;1.63;;
47335;SDS011;33068;51.990;5.926;2023-12-29T14:13:31;12.40;;;1.38;;
47335;SDS011;33068;51.990;5.926;2023-12-29T14:16:01;10.52;;;1.20;;
47335;SDS011;33068;51.990;5.926;2023-12-29T14:18:34;9.25;;;1.15;;
47335;SDS011;33068;51.990;5.926;2023-12-29T14:21:05;9.90;;;1.40;;
47335;SDS011;33068;51.990;5.926;2023-12-29T14:23:58;8.43;;;1.63;;
47335;SDS011;33068;51.990;5.926;2023-12-29T14:26:26;7.60;;;1.30;;
47335;SDS011;33068;51.990;5.926;2023-12-29T14:29:02;10.65;;;2.80;;
47335;SDS011;33068;51.990;5.926;2023-12-29T14:31:31;12.43;;;2.47;;
47335;SDS011;33068;51.990;5.926;2023-12-29T14:34:01;12.13;;;3.80;;
47335;SDS011;33068;51.990;5.926;2023-12-29T14:36:28;10.23;;;2.25;;
47335;SDS011;33068;51.990;5.926;2023-12-29T14:38:56;9.75;;;1.98;;
47335;SDS011;33068;51.990;5.926;2023-12-29T14:41:24;17.17;;;7.70;;
47335;SDS011;33068;51.990;5.926;2023-12-29T14:43:51;10.57;;;1.60;;
47335;SDS011;33068;51.990;5.926;2023-12-29T14:46:20;13.02;;;2.25;;
47335;SDS011;33068;51.990;5.926;2023-12-29T14:48:48;10.93;;;2.60;;
47335;SDS011;33068;51.990;5.926;2023-12-29T14:51:15;16.10;;;3.90;;
47335;SDS011;33068;51.990;5.926;2023-12-29T14:53:43;13.55;;;3.50;;
47335;SDS011;33068;51.990;5.926;2023-12-29T14:56:11;10.50;;;2.30;;
47335;SDS011;33068;51.990;5.926;2023-12-29T14:58:39;9.35;;;2.10;;
47335;SDS011;33068;51.990;5.926;2023-12-29T15:01:06;8.00;;;2.00;;
47335;SDS011;33068;51.990;5.926;2023-12-29T15:03:35;7.00;;;1.95;;
47335;SDS011;33068;51.990;5.926;2023-12-29T15:06:03;9.88;;;2.47;;
47335;SDS011;33068;51.990;5.926;2023-12-29T15:08:31;11.13;;;3.33;;
47335;SDS011;33068;51.990;5.926;2023-12-29T15:11:01;8.77;;;3.40;;
47335;SDS011;33068;51.990;5.926;2023-12-29T15:13:29;14.98;;;4.10;;
47335;SDS011;33068;51.990;5.926;2023-12-29T15:15:57;10.15;;;3.85;;
47335;SDS011;33068;51.990;5.926;2023-12-29T15:18:25;9.05;;;3.03;;